createdAt,value
2023-05-15T00:00:19.173Z,8.40
2023-05-15T00:00:49.803Z,8.40
2023-05-15T00:01:20.101Z,8.40
2023-05-15T00:01:51.141Z,8.40
2023-05-15T00:02:22.304Z,8.30
2023-05-15T00:02:53.459Z,8.30
2023-05-15T00:03:24.624Z,8.30
2023-05-15T00:03:55.509Z,8.20
2023-05-15T00:04:26.103Z,8.20
2023-05-15T00:04:57.529Z,8.20
2023-05-15T00:05:28.879Z,8.20
2023-05-15T00:05:59.578Z,8.20
2023-05-15T00:06:30.259Z,8.20
2023-05-15T00:07:01.422Z,8.20
2023-05-15T00:07:32.503Z,8.20
2023-05-15T00:08:03.497Z,8.20
2023-05-15T00:08:34.357Z,8.10
2023-05-15T00:09:06.892Z,8.10
2023-05-15T00:09:36.493Z,8.10
2023-05-15T00:10:08.020Z,8.10
2023-05-15T00:10:39.372Z,8.10
2023-05-15T00:11:09.524Z,8.10
2023-05-15T00:11:40.566Z,8.10
2023-05-15T00:12:11.190Z,8.10
2023-05-15T00:12:42.634Z,8.10
2023-05-15T00:13:13.536Z,8.10
2023-05-15T00:13:44.202Z,8.10
2023-05-15T00:14:15.636Z,8.10
2023-05-15T00:14:46.218Z,8.10
2023-05-15T00:15:17.824Z,8.10
2023-05-15T00:15:48.182Z,8.10
2023-05-15T00:16:19.270Z,8.10
2023-05-15T00:16:50.190Z,8.10
2023-05-15T00:17:21.280Z,8.10
2023-05-15T00:17:52.455Z,8.10
2023-05-15T00:18:23.316Z,8.10
2023-05-15T00:18:54.212Z,8.10
2023-05-15T00:19:25.599Z,8.10
2023-05-15T00:19:56.382Z,8.10
2023-05-15T00:20:27.927Z,8.10
2023-05-15T00:20:58.486Z,8.00
2023-05-15T00:21:29.576Z,8.00
2023-05-15T00:22:00.223Z,8.00
2023-05-15T00:22:31.429Z,8.00
2023-05-15T00:23:02.727Z,8.00
2023-05-15T00:23:33.224Z,8.00
2023-05-15T00:24:04.283Z,8.00
2023-05-15T00:24:35.279Z,8.00
2023-05-15T00:25:06.435Z,8.00
2023-05-15T00:25:37.507Z,8.00
2023-05-15T00:26:08.794Z,8.00
2023-05-15T00:26:39.203Z,8.00
2023-05-15T00:27:10.222Z,8.00
2023-05-15T00:27:41.212Z,8.00
2023-05-15T00:28:12.180Z,8.00
2023-05-15T00:28:43.383Z,8.00
2023-05-15T00:29:14.280Z,8.00
2023-05-15T00:29:45.377Z,8.00
2023-05-15T00:30:16.948Z,8.00
2023-05-15T00:30:47.630Z,7.90
2023-05-15T00:31:18.744Z,7.90
2023-05-15T00:31:49.363Z,7.90
2023-05-15T00:32:20.242Z,7.90
2023-05-15T00:32:51.303Z,7.90
2023-05-15T00:33:22.303Z,8.00
2023-05-15T00:33:53.243Z,8.00
2023-05-15T00:34:24.226Z,8.00
2023-05-15T00:34:55.206Z,8.00
2023-05-15T00:35:26.949Z,8.00
2023-05-15T00:35:57.283Z,8.00
2023-05-15T00:36:28.626Z,8.00
2023-05-15T00:36:59.404Z,8.00
2023-05-15T00:37:30.604Z,8.00
2023-05-15T00:38:01.341Z,8.00
2023-05-15T00:38:32.604Z,8.00
2023-05-15T00:39:03.944Z,7.90
2023-05-15T00:39:34.676Z,7.90
2023-05-15T00:40:05.747Z,7.90
2023-05-15T00:40:38.080Z,7.90
2023-05-15T00:41:07.601Z,7.90
2023-05-15T00:41:39.968Z,7.90
2023-05-15T00:42:09.405Z,8.00
2023-05-15T00:42:40.284Z,8.00
2023-05-15T00:43:11.329Z,8.00
2023-05-15T00:43:43.044Z,8.00
2023-05-15T00:44:13.805Z,8.00
2023-05-15T00:44:44.501Z,8.00
2023-05-15T00:45:16.183Z,8.00
2023-05-15T00:45:46.564Z,8.00
2023-05-15T00:46:17.345Z,8.00
2023-05-15T00:46:48.407Z,8.00
2023-05-15T00:47:19.539Z,8.00
2023-05-15T00:47:50.731Z,8.10
2023-05-15T00:48:21.704Z,8.10
2023-05-15T00:48:52.703Z,8.10
2023-05-15T00:49:23.992Z,8.10
2023-05-15T00:49:54.308Z,8.20
2023-05-15T00:50:25.786Z,8.20
2023-05-15T00:50:56.786Z,8.20
2023-05-15T00:51:27.430Z,8.20
2023-05-15T00:51:58.319Z,8.20
2023-05-15T00:52:29.333Z,8.20
2023-05-15T00:53:00.527Z,8.20
2023-05-15T00:53:31.595Z,8.20
2023-05-15T00:54:02.668Z,8.20
2023-05-15T00:54:33.291Z,8.20
2023-05-15T00:55:04.844Z,8.30
2023-05-15T00:55:35.337Z,8.30
2023-05-15T00:56:06.613Z,8.30
2023-05-15T00:56:37.472Z,8.30
2023-05-15T00:57:08.558Z,8.30
2023-05-15T00:57:39.602Z,8.30
2023-05-15T00:58:10.344Z,8.30
2023-05-15T00:58:41.306Z,8.30
2023-05-15T00:59:12.392Z,8.30
2023-05-15T00:59:44.006Z,8.20
2023-05-15T01:00:15.064Z,8.20
2023-05-15T01:00:45.538Z,8.20
2023-05-15T01:01:16.455Z,8.20
2023-05-15T01:01:47.658Z,8.20
2023-05-15T01:02:18.844Z,8.20
2023-05-15T01:02:49.382Z,8.20
2023-05-15T01:03:20.382Z,8.30
2023-05-15T01:03:51.393Z,8.30
2023-05-15T01:04:22.402Z,8.20
2023-05-15T01:04:53.394Z,8.20
2023-05-15T01:05:25.197Z,8.20
2023-05-15T01:05:55.486Z,8.20
2023-05-15T01:06:26.842Z,8.20
2023-05-15T01:06:57.516Z,8.20
2023-05-15T01:07:28.497Z,8.20
2023-05-15T01:07:59.568Z,8.20
2023-05-15T01:08:30.703Z,8.20
2023-05-15T01:09:01.411Z,8.20
2023-05-15T01:09:32.535Z,8.20
2023-05-15T01:10:04.004Z,8.20
2023-05-15T01:10:34.397Z,8.20
2023-05-15T01:11:05.292Z,8.20
2023-05-15T01:11:37.099Z,8.20
2023-05-15T01:12:08.761Z,8.20
2023-05-15T01:12:38.815Z,8.20
2023-05-15T01:13:10.352Z,8.20
2023-05-15T01:13:40.418Z,8.20
2023-05-15T01:14:11.972Z,8.20
2023-05-15T01:14:42.568Z,8.30
2023-05-15T01:15:14.036Z,8.30
2023-05-15T01:15:44.363Z,8.30
2023-05-15T01:16:15.396Z,8.30
2023-05-15T01:16:46.519Z,8.30
2023-05-15T01:17:17.460Z,8.30
2023-05-15T01:17:48.565Z,8.20
2023-05-15T01:18:19.948Z,8.20
2023-05-15T01:18:50.657Z,8.20
2023-05-15T01:19:21.776Z,8.20
2023-05-15T01:19:52.912Z,8.20
2023-05-15T01:20:24.083Z,8.20
2023-05-15T01:20:54.363Z,8.20
2023-05-15T01:21:25.467Z,8.20
2023-05-15T01:21:56.464Z,8.20
2023-05-15T01:22:27.564Z,8.20
2023-05-15T01:22:58.529Z,8.20
2023-05-15T01:23:29.364Z,8.20
2023-05-15T01:24:00.670Z,8.20
2023-05-15T01:24:31.701Z,8.20
2023-05-15T01:25:02.968Z,8.20
2023-05-15T01:25:33.764Z,8.20
2023-05-15T01:26:04.451Z,8.20
2023-05-15T01:26:35.712Z,8.20
2023-05-15T01:27:06.877Z,8.20
2023-05-15T01:27:37.512Z,8.20
2023-05-15T01:28:08.480Z,8.20
2023-05-15T01:28:39.427Z,8.10
2023-05-15T01:29:10.805Z,8.10
2023-05-15T01:29:41.846Z,8.10
2023-05-15T01:30:13.305Z,8.10
2023-05-15T01:30:43.446Z,8.10
2023-05-15T01:31:14.627Z,8.10
2023-05-15T01:31:45.541Z,8.10
2023-05-15T01:32:18.478Z,8.10
2023-05-15T01:32:47.488Z,8.10
2023-05-15T01:33:18.480Z,8.10
2023-05-15T01:33:49.503Z,8.10
2023-05-15T01:34:20.430Z,8.10
2023-05-15T01:34:51.542Z,8.10
2023-05-15T01:35:23.148Z,8.10
2023-05-15T01:35:53.398Z,8.10
2023-05-15T01:36:24.714Z,8.10
2023-05-15T01:36:55.574Z,8.00
2023-05-15T01:37:26.588Z,8.00
2023-05-15T01:37:57.630Z,8.00
2023-05-15T01:38:28.648Z,8.00
2023-05-15T01:38:59.839Z,8.00
2023-05-15T01:39:31.011Z,8.00
2023-05-15T01:40:01.765Z,8.00
2023-05-15T01:40:32.584Z,8.00
2023-05-15T01:41:03.804Z,8.00
2023-05-15T01:41:34.952Z,7.90
2023-05-15T01:42:05.410Z,7.90
2023-05-15T01:42:36.412Z,7.90
2023-05-15T01:43:07.550Z,7.80
2023-05-15T01:43:39.648Z,7.80
2023-05-15T01:44:09.838Z,7.70
2023-05-15T01:44:41.447Z,7.70
2023-05-15T01:45:12.251Z,7.70
2023-05-15T01:45:43.027Z,7.70
2023-05-15T01:46:13.483Z,7.70
2023-05-15T01:46:44.784Z,7.70
2023-05-15T01:47:15.577Z,7.70
2023-05-15T01:47:46.674Z,7.70
2023-05-15T01:48:17.526Z,7.70
2023-05-15T01:48:48.629Z,7.60
2023-05-15T01:49:19.902Z,7.60
2023-05-15T01:49:50.707Z,7.60
2023-05-15T01:50:22.294Z,7.60
2023-05-15T01:50:52.612Z,7.60
2023-05-15T01:51:23.485Z,7.60
2023-05-15T01:51:54.457Z,7.70
2023-05-15T01:52:25.576Z,7.70
2023-05-15T01:52:56.510Z,7.70
2023-05-15T01:53:27.481Z,7.80
2023-05-15T01:53:58.843Z,7.80
2023-05-15T01:54:29.442Z,7.80
2023-05-15T01:55:01.200Z,7.80
2023-05-15T01:55:31.605Z,7.80
2023-05-15T01:56:02.567Z,7.70
2023-05-15T01:56:33.581Z,7.70
2023-05-15T01:57:04.665Z,7.70
2023-05-15T01:57:35.636Z,7.70
2023-05-15T01:58:06.775Z,7.70
2023-05-15T01:58:37.730Z,7.70
2023-05-15T01:59:09.045Z,7.70
2023-05-15T01:59:39.744Z,7.60
2023-05-15T02:00:12.377Z,7.60
2023-05-15T02:00:41.816Z,7.60
2023-05-15T02:01:12.649Z,7.60
2023-05-15T02:01:43.794Z,7.60
2023-05-15T02:02:14.790Z,7.50
2023-05-15T02:02:45.985Z,7.50
2023-05-15T02:03:16.677Z,7.50
2023-05-15T02:03:47.797Z,7.50
2023-05-15T02:04:18.820Z,7.50
2023-05-15T02:04:49.800Z,7.50
2023-05-15T02:05:21.367Z,7.50
2023-05-15T02:05:51.842Z,7.50
2023-05-15T02:06:22.587Z,7.50
2023-05-15T02:06:53.603Z,7.50
2023-05-15T02:07:24.482Z,7.40
2023-05-15T02:07:55.613Z,7.40
2023-05-15T02:08:26.574Z,7.40
2023-05-15T02:08:57.745Z,7.40
2023-05-15T02:09:28.688Z,7.40
2023-05-15T02:09:59.740Z,7.40
2023-05-15T02:10:31.151Z,7.40
2023-05-15T02:11:01.793Z,7.40
2023-05-15T02:11:32.837Z,7.40
2023-05-15T02:12:03.651Z,7.40
2023-05-15T02:12:34.645Z,7.40
2023-05-15T02:13:05.557Z,7.30
2023-05-15T02:13:36.576Z,7.30
2023-05-15T02:14:07.748Z,7.30
2023-05-15T02:14:38.616Z,7.30
2023-05-15T02:15:11.537Z,7.30
2023-05-15T02:15:40.540Z,7.20
2023-05-15T02:16:13.044Z,7.20
2023-05-15T02:16:42.991Z,7.20
2023-05-15T02:17:13.903Z,7.10
2023-05-15T02:17:44.643Z,7.10
2023-05-15T02:18:16.013Z,7.10
2023-05-15T02:18:46.795Z,7.00
2023-05-15T02:19:17.866Z,7.00
2023-05-15T02:19:48.824Z,6.90
2023-05-15T02:20:20.308Z,6.90
2023-05-15T02:20:50.724Z,6.90
2023-05-15T02:21:22.169Z,6.90
2023-05-15T02:21:52.841Z,6.90
2023-05-15T02:22:23.959Z,6.80
2023-05-15T02:22:54.769Z,6.80
2023-05-15T02:23:25.594Z,6.80
2023-05-15T02:23:56.631Z,6.80
2023-05-15T02:24:27.576Z,6.80
2023-05-15T02:24:58.605Z,6.80
2023-05-15T02:25:30.461Z,6.70
2023-05-15T02:26:00.560Z,6.70
2023-05-15T02:26:32.043Z,6.70
2023-05-15T02:27:02.770Z,6.70
2023-05-15T02:27:33.803Z,6.80
2023-05-15T02:28:04.857Z,6.80
2023-05-15T02:28:35.602Z,6.90
2023-05-15T02:29:06.674Z,7.00
2023-05-15T02:29:37.670Z,7.00
2023-05-15T02:30:09.140Z,7.00
2023-05-15T02:30:39.721Z,7.00
2023-05-15T02:31:10.962Z,7.00
2023-05-15T02:31:41.797Z,7.10
2023-05-15T02:32:12.710Z,7.10
2023-05-15T02:32:43.906Z,7.00
2023-05-15T02:33:14.638Z,7.00
2023-05-15T02:33:45.649Z,7.10
2023-05-15T02:34:16.941Z,7.00
2023-05-15T02:34:47.702Z,7.00
2023-05-15T02:35:19.158Z,7.00
2023-05-15T02:35:49.718Z,7.00
2023-05-15T02:36:20.888Z,7.00
2023-05-15T02:36:51.947Z,7.00
2023-05-15T02:37:23.073Z,7.00
2023-05-15T02:37:53.938Z,7.00
2023-05-15T02:38:24.679Z,7.00
2023-05-15T02:38:55.749Z,7.00
2023-05-15T02:39:27.392Z,7.00
2023-05-15T02:39:57.850Z,7.10
2023-05-15T02:40:29.326Z,7.10
2023-05-15T02:40:59.969Z,7.00
2023-05-15T02:41:30.701Z,7.00
2023-05-15T02:42:01.714Z,7.00
2023-05-15T02:42:32.748Z,7.00
2023-05-15T02:43:03.907Z,7.00
2023-05-15T02:43:34.685Z,6.90
2023-05-15T02:44:06.106Z,6.90
2023-05-15T02:44:36.908Z,6.90
2023-05-15T02:45:08.577Z,6.90
2023-05-15T02:45:38.931Z,6.90
2023-05-15T02:46:09.840Z,6.90
2023-05-15T02:46:41.721Z,6.90
2023-05-15T02:47:12.006Z,6.90
2023-05-15T02:47:44.238Z,6.90
2023-05-15T02:48:13.690Z,7.00
2023-05-15T02:48:45.064Z,7.00
2023-05-15T02:49:16.200Z,7.00
2023-05-15T02:49:46.779Z,7.00
2023-05-15T02:50:18.481Z,6.90
2023-05-15T02:50:48.828Z,6.90
2023-05-15T02:51:20.042Z,6.90
2023-05-15T02:51:50.884Z,7.00
2023-05-15T02:52:21.721Z,7.00
2023-05-15T02:52:52.725Z,7.00
2023-05-15T02:53:23.740Z,7.10
2023-05-15T02:53:55.109Z,7.20
2023-05-15T02:54:26.232Z,7.20
2023-05-15T02:54:56.817Z,7.40
2023-05-15T02:55:28.159Z,7.50
2023-05-15T02:55:58.619Z,7.70
2023-05-15T02:56:29.740Z,7.70
2023-05-15T02:57:00.716Z,7.70
2023-05-15T02:57:32.079Z,7.70
2023-05-15T02:58:02.965Z,7.70
2023-05-15T02:58:33.990Z,7.70
2023-05-15T02:59:04.719Z,7.70
2023-05-15T02:59:35.718Z,7.70
2023-05-15T03:00:07.348Z,7.80
2023-05-15T03:00:37.779Z,7.80
2023-05-15T03:01:08.811Z,7.80
2023-05-15T03:01:39.752Z,7.90
2023-05-15T03:02:10.921Z,7.90
2023-05-15T03:02:42.292Z,7.90
2023-05-15T03:03:12.980Z,7.90
2023-05-15T03:03:44.048Z,7.90
2023-05-15T03:04:15.101Z,7.90
2023-05-15T03:04:46.467Z,7.90
2023-05-15T03:05:17.677Z,7.90
2023-05-15T03:05:48.033Z,7.90
2023-05-15T03:06:18.696Z,7.80
2023-05-15T03:06:49.898Z,7.80
2023-05-15T03:07:20.777Z,7.80
2023-05-15T03:07:52.001Z,7.80
2023-05-15T03:08:22.759Z,7.80
2023-05-15T03:08:53.751Z,7.80
2023-05-15T03:09:24.800Z,7.80
2023-05-15T03:09:56.118Z,7.80
2023-05-15T03:10:27.093Z,7.80
2023-05-15T03:10:58.296Z,7.70
2023-05-15T03:11:28.883Z,7.70
2023-05-15T03:11:59.877Z,7.60
2023-05-15T03:12:30.964Z,7.60
2023-05-15T03:13:01.984Z,7.60
2023-05-15T03:13:32.764Z,7.50
2023-05-15T03:14:03.979Z,7.50
2023-05-15T03:14:35.140Z,7.50
2023-05-15T03:15:06.767Z,7.50
2023-05-15T03:15:36.758Z,7.50
2023-05-15T03:16:08.021Z,7.50
2023-05-15T03:16:39.000Z,7.50
2023-05-15T03:17:10.136Z,7.50
2023-05-15T03:17:40.876Z,7.50
2023-05-15T03:18:13.035Z,7.50
2023-05-15T03:18:42.889Z,7.50
2023-05-15T03:19:14.943Z,7.50
2023-05-15T03:19:45.033Z,7.50
2023-05-15T03:20:16.784Z,7.50
2023-05-15T03:20:47.105Z,7.60
2023-05-15T03:21:17.955Z,7.60
2023-05-15T03:21:49.149Z,7.60
2023-05-15T03:22:20.283Z,7.60
2023-05-15T03:22:50.910Z,7.60
2023-05-15T03:23:21.963Z,7.60
2023-05-15T03:23:53.004Z,7.60
2023-05-15T03:24:24.006Z,7.60
2023-05-15T03:24:55.040Z,7.60
2023-05-15T03:25:27.128Z,7.70
2023-05-15T03:25:57.068Z,7.70
2023-05-15T03:26:27.771Z,7.80
2023-05-15T03:26:58.817Z,7.90
2023-05-15T03:27:30.177Z,8.00
2023-05-15T03:28:00.830Z,8.00
2023-05-15T03:28:31.859Z,7.90
2023-05-15T03:29:02.867Z,7.90
2023-05-15T03:29:34.582Z,7.90
2023-05-15T03:30:05.474Z,7.90
2023-05-15T03:30:35.765Z,7.90
2023-05-15T03:31:06.949Z,7.90
2023-05-15T03:31:38.426Z,7.90
2023-05-15T03:32:09.241Z,7.90
2023-05-15T03:32:40.351Z,7.90
2023-05-15T03:33:11.261Z,7.90
2023-05-15T03:33:42.456Z,7.80
2023-05-15T03:34:13.344Z,7.80
2023-05-15T03:34:43.894Z,7.80
2023-05-15T03:35:15.312Z,7.80
2023-05-15T03:35:45.841Z,7.80
2023-05-15T03:36:17.040Z,7.80
2023-05-15T03:36:48.047Z,7.80
2023-05-15T03:37:18.961Z,7.80
2023-05-15T03:37:50.130Z,7.80
2023-05-15T03:38:20.865Z,7.80
2023-05-15T03:38:52.042Z,7.80
2023-05-15T03:39:22.837Z,7.80
2023-05-15T03:39:53.928Z,7.80
2023-05-15T03:40:25.638Z,7.80
2023-05-15T03:40:55.916Z,7.80
2023-05-15T03:41:27.109Z,7.80
2023-05-15T03:41:57.847Z,7.80
2023-05-15T03:42:29.040Z,7.80
2023-05-15T03:42:59.881Z,7.80
2023-05-15T03:43:30.862Z,7.80
2023-05-15T03:44:01.962Z,7.80
2023-05-15T03:44:32.915Z,7.80
2023-05-15T03:45:04.416Z,7.80
2023-05-15T03:45:34.919Z,7.80
2023-05-15T03:46:05.887Z,7.80
2023-05-15T03:46:36.929Z,7.80
2023-05-15T03:47:07.961Z,7.80
2023-05-15T03:47:38.936Z,7.80
2023-05-15T03:48:09.957Z,7.80
2023-05-15T03:48:40.942Z,7.80
2023-05-15T03:49:12.041Z,7.70
2023-05-15T03:49:44.099Z,7.70
2023-05-15T03:50:14.373Z,7.70
2023-05-15T03:50:46.016Z,7.70
2023-05-15T03:51:16.279Z,7.70
2023-05-15T03:51:47.598Z,7.70
2023-05-15T03:52:18.205Z,7.70
2023-05-15T03:52:48.928Z,7.70
2023-05-15T03:53:20.002Z,7.70
2023-05-15T03:53:51.119Z,7.70
2023-05-15T03:54:22.358Z,7.70
2023-05-15T03:54:53.160Z,7.80
2023-05-15T03:55:24.811Z,7.80
2023-05-15T03:55:55.034Z,7.80
2023-05-15T03:56:26.301Z,7.80
2023-05-15T03:56:57.162Z,7.80
2023-05-15T03:57:28.351Z,7.80
2023-05-15T03:57:59.218Z,7.80
2023-05-15T03:58:30.141Z,7.80
2023-05-15T03:59:01.207Z,7.80
2023-05-15T03:59:32.111Z,7.80
2023-05-15T04:00:03.773Z,7.80
2023-05-15T04:00:34.904Z,7.80
2023-05-15T04:01:05.020Z,7.80
2023-05-15T04:01:44.240Z,7.80
2023-05-15T04:02:07.185Z,7.80
2023-05-15T04:02:38.305Z,7.80
2023-05-15T04:03:09.313Z,7.80
2023-05-15T04:03:40.267Z,7.80
2023-05-15T04:04:11.219Z,7.80
2023-05-15T04:04:42.069Z,7.90
2023-05-15T04:05:13.376Z,7.90
2023-05-15T04:05:44.276Z,7.90
2023-05-15T04:06:15.340Z,7.90
2023-05-15T04:06:46.195Z,8.00
2023-05-15T04:07:17.189Z,8.00
2023-05-15T04:07:47.959Z,8.00
2023-05-15T04:08:19.262Z,8.00
2023-05-15T04:08:49.939Z,8.00
2023-05-15T04:09:21.003Z,8.00
2023-05-15T04:09:52.342Z,8.00
2023-05-15T04:10:23.562Z,8.10
2023-05-15T04:10:54.115Z,8.10
2023-05-15T04:11:25.148Z,8.10
2023-05-15T04:11:56.220Z,8.10
2023-05-15T04:12:27.388Z,8.20
2023-05-15T04:12:57.997Z,8.20
2023-05-15T04:13:29.471Z,8.20
2023-05-15T04:14:00.032Z,8.20
2023-05-15T04:14:31.282Z,8.20
2023-05-15T04:15:02.659Z,8.30
2023-05-15T04:15:33.248Z,8.30
2023-05-15T04:16:04.202Z,8.30
2023-05-15T04:16:36.054Z,8.30
2023-05-15T04:17:06.208Z,8.30
2023-05-15T04:17:37.226Z,8.30
2023-05-15T04:18:08.200Z,8.30
2023-05-15T04:18:39.328Z,8.30
2023-05-15T04:19:10.478Z,8.30
2023-05-15T04:19:43.055Z,8.30
2023-05-15T04:20:12.830Z,8.30
2023-05-15T04:20:43.396Z,8.40
2023-05-15T04:21:15.506Z,8.40
2023-05-15T04:21:45.422Z,8.40
2023-05-15T04:22:17.955Z,8.40
2023-05-15T04:22:47.425Z,8.40
2023-05-15T04:23:18.549Z,8.40
2023-05-15T04:23:49.354Z,8.40
2023-05-15T04:24:20.148Z,8.40
2023-05-15T04:24:51.121Z,8.40
2023-05-15T04:25:23.882Z,8.40
2023-05-15T04:25:53.107Z,8.40
2023-05-15T04:26:24.144Z,8.40
2023-05-15T04:26:55.545Z,8.40
2023-05-15T04:27:26.448Z,8.40
2023-05-15T04:27:57.280Z,8.50
2023-05-15T04:28:28.729Z,8.50
2023-05-15T04:29:03.863Z,8.50
2023-05-15T04:29:30.728Z,8.50
2023-05-15T04:30:01.823Z,8.50
2023-05-15T04:30:32.304Z,8.50
2023-05-15T04:31:02.987Z,8.50
2023-05-15T04:31:34.412Z,8.50
2023-05-15T04:32:05.492Z,8.50
2023-05-15T04:32:36.290Z,8.60
2023-05-15T04:33:07.345Z,8.60
2023-05-15T04:33:38.300Z,8.60
2023-05-15T04:34:09.529Z,8.60
2023-05-15T04:34:40.321Z,8.60
2023-05-15T04:35:12.100Z,8.60
2023-05-15T04:35:42.266Z,8.60
2023-05-15T04:36:13.163Z,8.60
2023-05-15T04:36:44.121Z,8.60
2023-05-15T04:37:15.498Z,8.60
2023-05-15T04:37:46.094Z,8.60
2023-05-15T04:38:17.188Z,8.60
2023-05-15T04:38:48.161Z,8.60
2023-05-15T04:39:19.113Z,8.60
2023-05-15T04:39:50.541Z,8.60
2023-05-15T04:40:21.497Z,8.60
2023-05-15T04:40:52.734Z,8.60
2023-05-15T04:41:23.241Z,8.60
2023-05-15T04:41:54.296Z,8.60
2023-05-15T04:42:25.350Z,8.60
2023-05-15T04:42:56.485Z,8.60
2023-05-15T04:43:27.134Z,8.70
2023-05-15T04:43:58.387Z,8.70
2023-05-15T04:44:29.238Z,8.70
2023-05-15T04:45:00.777Z,8.70
2023-05-15T04:45:31.233Z,8.70
2023-05-15T04:46:02.157Z,8.70
2023-05-15T04:46:33.360Z,8.70
2023-05-15T04:47:04.448Z,8.70
2023-05-15T04:47:35.922Z,8.70
2023-05-15T04:48:07.001Z,8.70
2023-05-15T04:48:37.937Z,8.70
2023-05-15T04:49:08.257Z,8.70
2023-05-15T04:49:39.217Z,8.70
2023-05-15T04:50:10.813Z,8.70
2023-05-15T04:50:41.745Z,8.70
2023-05-15T04:51:12.272Z,8.70
2023-05-15T04:51:43.497Z,8.80
2023-05-15T04:52:14.672Z,8.80
2023-05-15T04:52:46.345Z,8.80
2023-05-15T04:53:16.318Z,8.80
2023-05-15T04:53:52.589Z,8.80
2023-05-15T04:54:23.068Z,8.80
2023-05-15T04:54:53.262Z,8.80
2023-05-15T04:55:27.856Z,8.80
2023-05-15T04:56:25.021Z,8.80
2023-05-15T04:56:55.688Z,8.80
2023-05-15T04:57:26.317Z,8.80
2023-05-15T04:57:57.904Z,8.80
2023-05-15T04:58:28.830Z,8.80
2023-05-15T04:59:03.385Z,8.80
2023-05-15T04:59:29.663Z,8.80
2023-05-15T05:00:04.483Z,8.80
2023-05-15T05:00:32.585Z,8.80
2023-05-15T05:01:04.129Z,8.80
2023-05-15T05:01:32.184Z,8.80
2023-05-15T05:02:03.381Z,8.80
2023-05-15T05:02:34.760Z,8.80
2023-05-15T05:03:05.510Z,8.80
2023-05-15T05:03:36.390Z,8.80
2023-05-15T05:04:08.193Z,8.80
2023-05-15T05:04:38.587Z,8.80
2023-05-15T05:05:10.078Z,8.70
2023-05-15T05:05:40.321Z,8.70
2023-05-15T05:06:11.336Z,8.70
2023-05-15T05:06:42.267Z,8.70
2023-05-15T05:07:13.370Z,8.80
2023-05-15T05:07:44.417Z,8.80
2023-05-15T05:08:15.618Z,8.80
2023-05-15T05:08:46.649Z,8.80
2023-05-15T05:09:17.348Z,8.80
2023-05-15T05:09:48.520Z,8.80
2023-05-15T05:10:19.871Z,8.80
2023-05-15T05:10:50.639Z,8.80
2023-05-15T05:11:21.368Z,8.80
2023-05-15T05:11:52.369Z,8.80
2023-05-15T05:12:23.667Z,8.80
2023-05-15T05:12:54.285Z,8.80
2023-05-15T05:13:25.493Z,8.80
2023-05-15T05:13:56.405Z,8.80
2023-05-15T05:14:27.613Z,8.80
2023-05-15T05:14:58.491Z,8.80
2023-05-15T05:15:30.048Z,8.80
2023-05-15T05:16:00.603Z,8.80
2023-05-15T05:16:31.507Z,8.80
2023-05-15T05:17:02.226Z,8.80
2023-05-15T05:17:33.430Z,8.80
2023-05-15T05:18:04.810Z,8.80
2023-05-15T05:18:35.790Z,8.90
2023-05-15T05:19:06.732Z,8.90
2023-05-15T05:19:37.375Z,8.90
2023-05-15T05:20:10.615Z,8.90
2023-05-15T05:20:39.270Z,8.90
2023-05-15T05:21:10.598Z,8.90
2023-05-15T05:21:41.245Z,8.90
2023-05-15T05:22:12.168Z,8.90
2023-05-15T05:22:43.270Z,8.90
2023-05-15T05:23:14.298Z,8.90
2023-05-15T05:23:45.392Z,9.00
2023-05-15T05:24:17.403Z,9.00
2023-05-15T05:24:47.310Z,9.00
2023-05-15T05:25:20.386Z,9.00
2023-05-15T05:25:49.372Z,9.00
2023-05-15T05:26:20.568Z,9.00
2023-05-15T05:26:51.616Z,9.00
2023-05-15T05:27:22.667Z,9.00
2023-05-15T05:27:53.793Z,9.00
2023-05-15T05:28:24.247Z,9.00
2023-05-15T05:28:55.384Z,9.00
2023-05-15T05:29:26.356Z,9.00
2023-05-15T05:29:58.062Z,9.00
2023-05-15T05:30:29.118Z,9.00
2023-05-15T05:30:59.542Z,9.10
2023-05-15T05:31:30.859Z,9.10
2023-05-15T05:32:01.733Z,9.10
2023-05-15T05:32:32.301Z,9.10
2023-05-15T05:33:03.494Z,9.10
2023-05-15T05:33:34.395Z,9.10
2023-05-15T05:34:05.218Z,9.10
2023-05-15T05:34:36.436Z,9.10
2023-05-15T05:35:08.298Z,9.10
2023-05-15T05:35:38.248Z,9.20
2023-05-15T05:36:09.818Z,9.20
2023-05-15T05:36:40.398Z,9.20
2023-05-15T05:37:11.384Z,9.20
2023-05-15T05:37:42.410Z,9.20
2023-05-15T05:38:13.304Z,9.20
2023-05-15T05:38:44.532Z,9.20
2023-05-15T05:39:15.701Z,9.20
2023-05-15T05:39:46.567Z,9.20
2023-05-15T05:40:18.081Z,9.20
2023-05-15T05:40:48.568Z,9.20
2023-05-15T05:41:19.653Z,9.20
2023-05-15T05:41:50.422Z,9.20
2023-05-15T05:42:21.582Z,9.30
2023-05-15T05:42:52.406Z,9.30
2023-05-15T05:43:23.606Z,9.30
2023-05-15T05:43:54.543Z,9.20
2023-05-15T05:44:25.622Z,9.20
2023-05-15T05:44:56.650Z,9.20
2023-05-15T05:45:28.311Z,9.30
2023-05-15T05:45:58.407Z,9.30
2023-05-15T05:46:29.410Z,9.30
2023-05-15T05:47:00.395Z,9.30
2023-05-15T05:47:31.411Z,9.30
2023-05-15T05:48:02.364Z,9.30
2023-05-15T05:48:33.540Z,9.30
2023-05-15T05:49:04.603Z,9.30
2023-05-15T05:49:35.523Z,9.30
2023-05-15T05:50:06.552Z,9.40
2023-05-15T05:50:37.845Z,9.40
2023-05-15T05:51:08.299Z,9.40
2023-05-15T05:51:39.390Z,9.40
2023-05-15T05:52:10.316Z,9.40
2023-05-15T05:52:41.310Z,9.50
2023-05-15T05:53:12.381Z,9.50
2023-05-15T05:53:43.396Z,9.50
2023-05-15T05:54:14.378Z,9.50
2023-05-15T05:54:45.939Z,9.50
2023-05-15T05:55:16.803Z,9.50
2023-05-15T05:55:48.341Z,9.50
2023-05-15T05:56:18.458Z,9.50
2023-05-15T05:56:50.011Z,9.60
2023-05-15T05:57:20.385Z,9.60
2023-05-15T05:57:51.423Z,9.60
2023-05-15T05:58:25.924Z,9.60
2023-05-15T05:58:53.373Z,9.70
2023-05-15T05:59:24.363Z,9.70
2023-05-15T05:59:55.439Z,9.70
2023-05-15T06:00:26.959Z,9.60
2023-05-15T06:00:57.758Z,9.60
2023-05-15T06:01:28.602Z,9.60
2023-05-15T06:01:59.540Z,9.60
2023-05-15T06:02:30.609Z,9.70
2023-05-15T06:03:01.764Z,9.70
2023-05-15T06:03:32.855Z,9.70
2023-05-15T06:04:03.890Z,9.70
2023-05-15T06:04:35.051Z,9.70
2023-05-15T06:05:05.945Z,9.80
2023-05-15T06:05:36.671Z,9.80
2023-05-15T06:06:07.511Z,9.80
2023-05-15T06:06:38.417Z,9.80
2023-05-15T06:07:09.510Z,9.80
2023-05-15T06:07:40.513Z,9.80
2023-05-15T06:08:11.522Z,9.80
2023-05-15T06:08:42.592Z,9.80
2023-05-15T06:09:14.219Z,9.80
2023-05-15T06:09:44.680Z,9.80
2023-05-15T06:10:15.820Z,9.80
2023-05-15T06:10:46.459Z,9.80
2023-05-15T06:11:17.780Z,9.80
2023-05-15T06:11:49.039Z,9.80
2023-05-15T06:12:21.548Z,9.80
2023-05-15T06:12:50.842Z,9.80
2023-05-15T06:13:21.525Z,9.80
2023-05-15T06:13:52.906Z,9.80
2023-05-15T06:14:23.932Z,9.80
2023-05-15T06:14:54.515Z,9.90
2023-05-15T06:15:26.377Z,9.90
2023-05-15T06:15:56.517Z,9.90
2023-05-15T06:16:27.565Z,9.90
2023-05-15T06:16:58.717Z,10.00
2023-05-15T06:17:29.873Z,10.00
2023-05-15T06:18:00.839Z,10.00
2023-05-15T06:18:31.929Z,10.00
2023-05-15T06:19:03.424Z,10.00
2023-05-15T06:19:33.955Z,10.10
2023-05-15T06:20:04.689Z,10.10
2023-05-15T06:20:35.482Z,10.10
2023-05-15T06:21:06.623Z,10.00
2023-05-15T06:21:37.512Z,10.00
2023-05-15T06:22:08.552Z,10.00
2023-05-15T06:22:39.603Z,10.00
2023-05-15T06:23:10.565Z,10.00
2023-05-15T06:23:41.545Z,10.00
2023-05-15T06:24:12.798Z,10.10
2023-05-15T06:24:43.505Z,10.10
2023-05-15T06:25:14.979Z,10.10
2023-05-15T06:25:45.579Z,10.10
2023-05-15T06:26:16.810Z,10.20
2023-05-15T06:26:47.684Z,10.30
2023-05-15T06:27:19.886Z,10.30
2023-05-15T06:27:49.664Z,10.30
2023-05-15T06:28:21.457Z,10.20
2023-05-15T06:28:51.583Z,10.20
2023-05-15T06:29:22.652Z,10.20
2023-05-15T06:29:53.745Z,10.10
2023-05-15T06:30:26.063Z,10.10
2023-05-15T06:30:55.909Z,10.10
2023-05-15T06:31:27.143Z,10.20
2023-05-15T06:31:57.903Z,10.30
2023-05-15T06:32:28.990Z,10.40
2023-05-15T06:33:00.018Z,10.40
2023-05-15T06:33:31.039Z,10.40
2023-05-15T06:34:02.267Z,10.30
2023-05-15T06:34:32.760Z,10.30
2023-05-15T06:35:03.919Z,10.40
2023-05-15T06:35:52.065Z,10.30
2023-05-15T06:36:08.719Z,10.30
2023-05-15T06:36:36.717Z,10.30
2023-05-15T06:37:07.679Z,10.40
2023-05-15T06:37:38.957Z,10.30
2023-05-15T06:38:09.921Z,10.30
2023-05-15T06:38:40.942Z,10.30
2023-05-15T06:39:12.312Z,10.30
2023-05-15T06:39:43.265Z,10.30
2023-05-15T06:40:14.407Z,10.40
2023-05-15T06:40:45.027Z,10.40
2023-05-15T06:41:16.237Z,10.40
2023-05-15T06:41:47.042Z,10.50
2023-05-15T06:42:18.014Z,10.50
2023-05-15T06:42:49.116Z,10.50
2023-05-15T06:43:19.668Z,10.50
2023-05-15T06:43:51.016Z,10.60
2023-05-15T06:44:23.578Z,10.60
2023-05-15T06:44:53.328Z,10.70
2023-05-15T06:45:24.940Z,10.70
2023-05-15T06:45:55.009Z,10.70
2023-05-15T06:46:25.947Z,10.70
2023-05-15T06:46:57.159Z,10.60
2023-05-15T06:47:27.763Z,10.60
2023-05-15T06:48:01.594Z,10.60
2023-05-15T06:48:29.761Z,10.60
2023-05-15T06:49:00.992Z,10.60
2023-05-15T06:49:31.662Z,10.60
2023-05-15T06:50:02.875Z,10.60
2023-05-15T06:50:33.709Z,10.60
2023-05-15T06:51:04.845Z,10.60
2023-05-15T06:51:35.655Z,10.60
2023-05-15T06:52:06.921Z,10.60